Time;durP1;ratioP1;P1;durP2;ratioP2;P2;SDS_P1;SDS_P2;PMS_P1;PMS_P2;Temp;Humidity;BMP_temperature;BMP_pressure;BME280_temperature;BME280_humidity;BME280_pressure;Samples;Min_cycle;Max_cycle;Signal;HPM_P1;HPM_P2
2021/09/15 07:18:37;;;;;;;35.67;15.27;;;20.10;99.90;;;;;;6244993;23;20183;-72
2021/09/15 07:21:04;;;;;;;35.22;15.00;;;20.10;99.90;;;;;;6237895;23;20286;-73
2021/09/15 07:23:31;;;;;;;39.60;15.35;;;20.10;99.90;;;;;;6242674;23;20553;-73
2021/09/15 07:25:58;;;;;;;36.45;15.75;;;20.20;99.90;;;;;;6244242;23;20186;-73
2021/09/15 07:28:25;;;;;;;34.47;15.38;;;20.30;99.90;;;;;;6243413;23;20505;-73
2021/09/15 07:30:52;;;;;;;41.22;16.30;;;20.40;99.90;;;;;;6243691;23;20180;-73
2021/09/15 07:33:18;;;;;;;37.58;16.45;;;20.50;99.90;;;;;;6243976;23;20201;-72
2021/09/15 07:35:47;;;;;;;36.83;15.57;;;20.60;99.90;;;;;;6243979;23;20266;-72
2021/09/15 07:38:14;;;;;;;35.28;15.75;;;20.60;99.90;;;;;;6243743;23;20472;-73
2021/09/15 07:40:41;;;;;;;34.63;15.60;;;20.50;99.90;;;;;;6243710;23;20237;-72
2021/09/15 07:43:08;;;;;;;35.28;15.52;;;20.50;99.90;;;;;;6243643;23;20505;-73
2021/09/15 07:45:34;;;;;;;31.17;14.85;;;20.40;99.90;;;;;;6243326;23;20666;-72
2021/09/15 07:48:01;;;;;;;35.67;15.73;;;20.40;99.90;;;;;;6244312;23;20258;-73
2021/09/15 07:50:29;;;;;;;33.88;15.25;;;20.50;99.90;;;;;;6243361;23;20183;-71
2021/09/15 07:52:57;;;;;;;34.95;15.10;;;20.50;99.90;;;;;;6246132;23;20182;-75
2021/09/15 07:55:24;;;;;;;32.50;15.45;;;20.50;99.90;;;;;;6245015;23;20196;-75
2021/09/15 07:57:53;;;;;;;35.45;15.13;;;20.60;99.90;;;;;;6243396;23;20176;-72
2021/09/15 08:00:20;;;;;;;38.90;16.08;;;20.60;99.90;;;;;;6243773;23;20203;-71
2021/09/15 08:02:47;;;;;;;32.45;15.32;;;20.70;99.90;;;;;;6243025;23;20649;-72
2021/09/15 08:05:14;;;;;;;33.53;14.65;;;20.80;99.90;;;;;;6243002;23;20199;-71
2021/09/15 08:07:40;;;;;;;33.92;14.40;;;20.80;99.90;;;;;;6243282;23;20638;-72
2021/09/15 08:10:10;;;;;;;33.45;15.45;;;21.00;99.90;;;;;;6243347;23;20179;-75
2021/09/15 08:12:37;;;;;;;32.42;15.15;;;21.10;99.90;;;;;;6243206;23;20186;-71
2021/09/15 08:15:05;;;;;;;32.78;14.40;;;21.10;99.90;;;;;;6243179;23;20203;-72
2021/09/15 08:17:32;;;;;;;31.63;14.68;;;21.20;99.90;;;;;;6242678;23;20203;-72
2021/09/15 08:19:58;;;;;;;34.42;14.90;;;21.30;99.90;;;;;;6242180;23;20179;-72
2021/09/15 08:22:25;;;;;;;29.67;13.50;;;21.30;99.90;;;;;;6243286;23;20266;-72
2021/09/15 08:24:53;;;;;;;36.05;16.50;;;21.50;99.90;;;;;;6243380;23;20254;-73
2021/09/15 08:27:22;;;;;;;32.65;14.48;;;21.60;99.90;;;;;;6242457;23;20179;-74
2021/09/15 08:29:48;;;;;;;29.83;15.68;;;21.80;99.90;;;;;;6243479;23;20176;-73
2021/09/15 08:32:15;;;;;;;27.33;13.23;;;21.80;99.90;;;;;;6243712;23;20190;-85
2021/09/15 08:34:42;;;;;;;29.75;14.13;;;21.70;99.90;;;;;;6242978;23;20251;-81
2021/09/15 08:37:09;;;;;;;28.20;15.18;;;21.70;99.90;;;;;;6243672;23;20190;-76
2021/09/15 08:39:36;;;;;;;25.30;13.32;;;21.60;99.90;;;;;;6244829;23;20186;-75
2021/09/15 08:42:03;;;;;;;24.70;12.63;;;21.50;99.90;;;;;;6246604;23;20207;-75
2021/09/15 08:44:32;;;;;;;27.17;12.88;;;21.40;99.90;;;;;;6246684;23;20196;-75
2021/09/15 08:47:00;;;;;;;22.20;12.15;;;21.40;99.90;;;;;;6246353;23;20190;-76
2021/09/15 08:49:29;;;;;;;21.08;11.48;;;21.40;99.90;;;;;;6246451;23;20176;-76
2021/09/15 08:51:56;;;;;;;27.55;13.32;;;21.50;99.90;;;;;;6245837;23;20661;-75
2021/09/15 08:54:23;;;;;;;25.83;13.35;;;21.60;99.90;;;;;;6247021;23;20518;-76
2021/09/15 08:56:50;;;;;;;24.20;12.70;;;21.50;99.90;;;;;;6246719;23;20176;-75
2021/09/15 08:59:17;;;;;;;28.00;13.82;;;21.40;99.90;;;;;;6246392;23;20585;-75
2021/09/15 09:01:46;;;;;;;21.23;11.98;;;21.50;99.90;;;;;;6246564;23;20215;-77
2021/09/15 09:04:15;;;;;;;21.00;12.27;;;21.50;99.90;;;;;;6246434;23;20246;-76
2021/09/15 09:06:42;;;;;;;19.75;11.52;;;21.60;99.90;;;;;;6246290;23;20226;-72
2021/09/15 09:09:09;;;;;;;19.50;10.77;;;21.60;99.90;;;;;;6246388;23;20186;-75
2021/09/15 09:11:37;;;;;;;21.67;10.75;;;21.50;99.90;;;;;;6246741;23;20487;-72
2021/09/15 09:14:06;;;;;;;18.70;10.45;;;21.40;99.90;;;;;;6247589;23;20206;-77
2021/09/15 09:16:42;;;;;;;20.80;10.65;;;21.20;99.90;;;;;;6247350;23;20183;-77
2021/09/15 09:19:12;;;;;;;19.85;11.85;;;21.20;99.90;;;;;;6246995;23;20637;-77
2021/09/15 09:21:41;;;;;;;17.95;10.52;;;21.10;99.90;;;;;;6247286;23;20211;-78
2021/09/15 09:24:10;;;;;;;16.95;9.90;;;21.00;99.90;;;;;;6247565;23;20195;-78
2021/09/15 09:26:52;;;;;;;19.17;10.73;;;21.10;99.90;;;;;;6247530;23;20175;-79
2021/09/15 09:29:21;;;;;;;20.13;9.93;;;21.10;99.90;;;;;;6247335;23;20176;-78
2021/09/15 09:32:03;;;;;;;20.73;10.40;;;21.10;99.90;;;;;;6246890;23;20278;-77
2021/09/15 09:34:39;;;;;;;17.42;9.32;;;21.10;99.90;;;;;;6246667;23;20199;-78
2021/09/15 09:37:09;;;;;;;21.33;10.82;;;21.30;99.90;;;;;;6247529;23;20175;-78
2021/09/15 09:39:38;;;;;;;21.20;10.07;;;21.80;99.90;;;;;;6247367;23;20222;-78
2021/09/15 09:42:29;;;;;;;17.85;10.48;;;22.20;99.90;;;;;;6246811;23;20211;-78
2021/09/15 09:45:10;;;;;;;18.90;10.52;;;22.40;99.90;;;;;;6247186;23;20196;-78
2021/09/15 09:47:37;;;;;;;20.05;10.95;;;22.40;99.90;;;;;;6247254;23;20175;-78
2021/09/15 09:50:08;;;;;;;20.48;11.48;;;22.40;99.90;;;;;;6247670;23;20506;-78
2021/09/15 09:52:52;;;;;;;22.20;11.95;;;22.40;99.90;;;;;;6247225;23;20179;-78
2021/09/15 09:55:20;;;;;;;21.60;11.70;;;22.30;99.90;;;;;;6246539;23;20665;-78
2021/09/15 09:57:49;;;;;;;21.40;11.57;;;22.20;99.90;;;;;;6246876;23;20504;-78
2021/09/15 10:00:17;;;;;;;20.63;12.00;;;22.10;99.90;;;;;;6247474;23;20182;-78
2021/09/15 10:02:45;;;;;;;21.02;11.82;;;21.60;99.90;;;;;;6246632;23;20207;-78
2021/09/15 10:05:14;;;;;;;21.95;12.55;;;21.50;99.90;;;;;;6246846;23;20202;-78
2021/09/15 10:07:42;;;;;;;22.92;13.00;;;21.40;99.90;;;;;;6246878;23;20638;-78
2021/09/15 10:10:11;;;;;;;25.80;13.10;;;21.40;99.90;;;;;;6247068;23;20176;-78
2021/09/15 10:12:38;;;;;;;22.73;12.32;;;21.40;99.90;;;;;;6246764;23;20226;-78
2021/09/15 10:15:07;;;;;;;21.38;12.00;;;21.50;99.90;;;;;;6246529;23;20745;-78
2021/09/15 10:17:36;;;;;;;19.50;11.10;;;21.60;99.90;;;;;;6246396;23;20183;-78
2021/09/15 10:20:06;;;;;;;18.27;10.05;;;21.70;99.90;;;;;;6246961;23;20189;-78
2021/09/15 10:22:41;;;;;;;15.68;9.68;;;21.80;99.90;;;;;;6247011;23;20204;-79
2021/09/15 10:25:09;;;;;;;15.38;8.95;;;21.90;99.90;;;;;;6246651;23;20199;-78
2021/09/15 10:27:58;;;;;;;12.18;7.90;;;21.80;99.90;;;;;;6246676;23;20176;-79
2021/09/15 10:30:40;;;;;;;13.60;8.43;;;21.70;99.90;;;;;;6246473;23;20190;-79
2021/09/15 10:33:07;;;;;;;12.88;8.10;;;21.80;99.90;;;;;;6246468;23;20175;-78
2021/09/15 10:35:45;;;;;;;11.75;7.18;;;21.90;99.90;;;;;;6246676;23;20176;-79
2021/09/15 10:38:14;;;;;;;12.27;7.90;;;22.00;99.90;;;;;;6246027;23;20549;-78
2021/09/15 10:40:44;;;;;;;12.90;7.75;;;22.10;99.90;;;;;;6246463;23;20214;-79
2021/09/15 10:43:39;;;;;;;10.25;6.82;;;22.20;99.90;;;;;;6246919;23;20238;-78
2021/09/15 10:46:36;;;;;;;10.93;7.07;;;22.40;99.90;;;;;;6246278;23;20665;-79
2021/09/15 10:49:41;;;;;;;11.15;6.90;;;22.40;99.90;;;;;;6124674;23;20182;-78
2021/09/15 10:52:27;;;;;;;11.30;6.70;;;22.40;99.90;;;;;;6246179;23;20621;-79
2021/09/15 10:54:58;;;;;;;13.27;7.55;;;22.30;99.90;;;;;;6246190;23;20195;-79
2021/09/15 10:57:31;;;;;;;14.40;7.85;;;22.50;99.90;;;;;;6246316;23;20176;-79
2021/09/15 11:00:00;;;;;;;14.13;7.88;;;22.50;99.90;;;;;;6246478;23;20179;-78
2021/09/15 11:02:28;;;;;;;19.58;11.55;;;22.40;99.90;;;;;;6246040;23;20211;-78
2021/09/15 11:04:56;;;;;;;14.40;7.90;;;22.50;99.90;;;;;;6246334;23;20195;-78
2021/09/15 11:08:00;;;;;;;17.67;9.13;;;22.50;99.90;;;;;;6246364;23;20183;-79
2021/09/15 11:10:45;;;;;;;21.13;10.07;;;22.70;99.90;;;;;;6246165;23;20254;-78
2021/09/15 11:13:13;;;;;;;16.75;9.32;;;23.00;99.90;;;;;;6246225;23;20206;-78
2021/09/15 11:15:42;;;;;;;17.20;8.43;;;23.00;99.90;;;;;;6245798;23;20509;-78
2021/09/15 11:18:16;;;;;;;14.93;8.77;;;22.90;99.90;;;;;;6245555;23;20513;-79
2021/09/15 11:20:43;;;;;;;12.48;7.53;;;23.00;99.90;;;;;;6246306;23;20176;-78
2021/09/15 11:23:10;;;;;;;10.95;6.63;;;23.00;99.90;;;;;;6245794;23;20511;-78
2021/09/15 11:25:37;;;;;;;10.15;5.95;;;23.00;99.90;;;;;;6246311;23;20183;-78
2021/09/15 11:28:09;;;;;;;9.90;6.25;;;23.10;99.90;;;;;;6246419;23;20175;-78
2021/09/15 11:30:37;;;;;;;7.18;5.00;;;23.20;99.90;;;;;;6246292;23;20180;-78
2021/09/15 11:33:04;;;;;;;6.32;4.40;;;23.30;99.90;;;;;;6245945;23;20181;-78
2021/09/15 11:35:34;;;;;;;6.25;4.55;;;23.30;99.90;;;;;;6246212;23;20176;-78
2021/09/15 11:38:02;;;;;;;5.93;3.67;;;23.30;99.90;;;;;;6246215;23;20180;-78
2021/09/15 11:40:30;;;;;;;4.60;3.55;;;23.30;99.90;;;;;;6245925;23;20658;-78
2021/09/15 11:43:01;;;;;;;3.65;2.95;;;23.30;99.90;;;;;;6246233;23;20211;-78
2021/09/15 11:45:30;;;;;;;5.68;2.90;;;23.40;99.90;;;;;;6246077;23;20180;-79
2021/09/15 11:47:57;;;;;;;6.10;3.10;;;23.30;99.90;;;;;;6246156;23;20487;-78
2021/09/15 11:50:27;;;;;;;4.35;3.35;;;23.30;99.90;;;;;;6246186;23;20182;-78
2021/09/15 11:52:57;;;;;;;5.93;3.25;;;23.30;99.90;;;;;;6245867;23;20258;-78
2021/09/15 11:55:25;;;;;;;5.60;3.22;;;23.50;99.90;;;;;;6246159;23;20195;-78
2021/09/15 11:57:54;;;;;;;6.05;3.25;;;23.70;99.90;;;;;;6245558;23;20530;-79
2021/09/15 12:00:21;;;;;;;5.43;4.50;;;23.80;99.90;;;;;;6245859;23;20172;-79
2021/09/15 12:02:51;;;;;;;8.63;4.80;;;23.50;99.90;;;;;;6245627;23;20207;-80
2021/09/15 12:05:20;;;;;;;7.50;4.78;;;23.50;99.90;;;;;;6246082;23;20199;-78
2021/09/15 12:07:48;;;;;;;5.93;3.83;;;23.60;99.90;;;;;;6245302;23;20186;-78
2021/09/15 12:10:15;;;;;;;6.05;3.65;;;23.70;99.90;;;;;;6246207;23;20182;-78
2021/09/15 12:12:42;;;;;;;8.15;3.55;;;23.70;99.90;;;;;;6246097;23;20198;-78
2021/09/15 12:15:10;;;;;;;5.15;3.38;;;23.70;99.90;;;;;;6246443;23;20199;-77
2021/09/15 12:17:38;;;;;;;4.75;3.42;;;23.70;99.90;;;;;;6247518;23;20183;-78
2021/09/15 12:20:08;;;;;;;4.75;3.95;;;23.80;99.90;;;;;;6248191;23;20176;-78
2021/09/15 12:22:37;;;;;;;6.97;4.43;;;23.80;99.90;;;;;;6247917;23;20207;-78
2021/09/15 12:25:08;;;;;;;5.35;4.13;;;23.70;99.90;;;;;;6247763;23;20199;-79
2021/09/15 12:27:36;;;;;;;4.93;3.13;;;23.70;99.90;;;;;;6248180;23;20175;-78
2021/09/15 12:30:06;;;;;;;4.13;2.33;;;23.80;99.90;;;;;;6247821;23;20583;-78
2021/09/15 12:32:36;;;;;;;3.17;2.33;;;24.00;99.90;;;;;;6247584;23;20176;-78
2021/09/15 12:35:05;;;;;;;3.78;2.67;;;24.00;99.90;;;;;;6247857;23;20673;-78
2021/09/15 12:37:38;;;;;;;4.25;2.78;;;24.10;99.90;;;;;;6247583;23;20255;-79
2021/09/15 12:40:07;;;;;;;3.95;2.92;;;23.80;99.90;;;;;;6248104;23;20267;-78
2021/09/15 12:42:36;;;;;;;4.65;2.58;;;23.90;99.90;;;;;;6247406;23;20662;-78
2021/09/15 12:45:05;;;;;;;3.05;2.35;;;23.80;99.90;;;;;;6246991;23;20195;-79
2021/09/15 12:47:37;;;;;;;2.88;2.22;;;23.80;99.90;;;;;;6247043;23;20510;-77
2021/09/15 12:50:15;;;;;;;3.45;2.47;;;23.90;99.90;;;;;;6247262;23;20239;-78
2021/09/15 12:52:43;;;;;;;3.08;1.83;;;23.80;99.90;;;;;;6247712;23;20502;-77
2021/09/15 12:55:19;;;;;;;4.40;2.20;;;23.80;99.90;;;;;;6247763;23;20202;-78
2021/09/15 12:57:57;;;;;;;2.75;2.00;;;23.60;99.90;;;;;;6247678;23;20175;-78
2021/09/15 13:00:25;;;;;;;3.47;2.08;;;23.60;99.90;;;;;;6247755;23;20290;-78
2021/09/15 13:02:54;;;;;;;2.88;2.13;;;23.80;99.90;;;;;;6247393;23;20285;-77
2021/09/15 13:05:22;;;;;;;4.65;1.90;;;23.70;99.90;;;;;;6247115;23;20191;-78
2021/09/15 13:07:49;;;;;;;2.90;1.75;;;23.60;99.90;;;;;;6247396;23;20510;-77
2021/09/15 13:10:17;;;;;;;3.85;1.65;;;23.60;99.90;;;;;;6247871;23;20175;-77
2021/09/15 13:12:43;;;;;;;3.03;1.23;;;23.40;99.90;;;;;;6247435;23;20611;-78
2021/09/15 13:15:11;;;;;;;2.17;1.20;;;23.20;99.90;;;;;;6248504;23;20202;-78
2021/09/15 13:17:38;;;;;;;2.60;1.20;;;23.00;99.90;;;;;;6247233;23;20187;-78
2021/09/15 13:20:06;;;;;;;1.98;1.17;;;22.90;99.90;;;;;;6247194;23;20239;-78
2021/09/15 13:22:34;;;;;;;2.00;1.20;;;22.80;99.90;;;;;;6247199;23;20207;-78
2021/09/15 13:25:01;;;;;;;2.20;1.15;;;22.80;99.90;;;;;;6247193;23;20195;-78
2021/09/15 13:27:28;;;;;;;3.00;1.00;;;22.80;99.90;;;;;;6247181;23;20179;-78
2021/09/15 13:29:54;;;;;;;2.17;0.90;;;22.80;99.90;;;;;;6247070;23;20175;-79
2021/09/15 13:32:21;;;;;;;3.10;0.90;;;23.00;99.90;;;;;;6247260;23;20183;-78
2021/09/15 13:34:48;;;;;;;2.00;1.00;;;23.00;99.90;;;;;;6247033;23;20196;-80
2021/09/15 13:37:15;;;;;;;1.98;1.00;;;22.90;99.90;;;;;;6246518;23;20634;-79
2021/09/15 13:39:43;;;;;;;2.33;1.10;;;22.80;99.90;;;;;;6247268;23;20637;-78
2021/09/15 13:42:10;;;;;;;1.48;1.10;;;22.70;99.90;;;;;;6247501;23;20203;-77
2021/09/15 13:44:37;;;;;;;1.75;0.95;;;22.60;99.90;;;;;;6247287;23;20196;-77
2021/09/15 13:47:04;;;;;;;1.75;0.90;;;22.60;99.90;;;;;;6247117;23;20702;-77
2021/09/15 13:49:38;;;;;;;1.27;0.90;;;22.60;99.90;;;;;;6246937;23;20198;-78
2021/09/15 13:52:08;;;;;;;2.10;1.00;;;22.50;99.90;;;;;;6247152;23;20237;-77
2021/09/15 13:54:35;;;;;;;2.45;1.02;;;22.40;99.90;;;;;;6247161;23;20206;-78
2021/09/15 13:57:04;;;;;;;1.70;0.85;;;22.40;99.90;;;;;;6246716;23;20210;-77
2021/09/15 13:59:30;;;;;;;3.00;1.05;;;22.50;99.90;;;;;;6246693;23;20180;-77
2021/09/15 14:01:57;;;;;;;2.05;0.90;;;22.60;99.90;;;;;;6246881;23;20176;-77
2021/09/15 14:04:24;;;;;;;1.80;0.60;;;22.70;99.90;;;;;;6247822;23;20282;-78
2021/09/15 14:06:51;;;;;;;2.58;0.90;;;22.70;99.90;;;;;;6247069;23;20182;-78
2021/09/15 14:09:18;;;;;;;2.75;0.95;;;22.70;99.90;;;;;;6247165;23;20185;-78
2021/09/15 14:11:45;;;;;;;2.25;1.17;;;22.60;99.90;;;;;;6247543;23;20176;-77
2021/09/15 14:14:13;;;;;;;2.53;1.48;;;22.50;99.90;;;;;;6247519;23;20202;-78
2021/09/15 14:16:41;;;;;;;2.53;1.33;;;22.40;99.90;;;;;;6247672;23;20190;-77
2021/09/15 14:19:08;;;;;;;3.20;1.48;;;22.40;99.90;;;;;;6247495;23;20743;-77
2021/09/15 14:21:36;;;;;;;3.40;1.52;;;22.50;99.90;;;;;;6247119;23;20176;-78
2021/09/15 14:24:03;;;;;;;2.35;1.38;;;22.60;99.90;;;;;;6247292;23;20725;-78
2021/09/15 14:26:30;;;;;;;2.95;1.00;;;22.50;99.90;;;;;;6247718;23;20649;-78
2021/09/15 14:28:57;;;;;;;1.58;0.80;;;22.40;99.90;;;;;;6246435;23;20180;-78
2021/09/15 14:31:25;;;;;;;1.30;0.60;;;22.50;99.90;;;;;;6246735;23;20186;-77
2021/09/15 14:33:52;;;;;;;0.98;0.57;;;22.30;99.90;;;;;;6246699;23;20196;-77
2021/09/15 14:36:20;;;;;;;1.60;0.50;;;22.20;99.90;;;;;;6247525;23;20267;-77
2021/09/15 14:38:47;;;;;;;0.68;0.40;;;22.30;99.90;;;;;;6246497;23;20179;-78
2021/09/15 14:41:15;;;;;;;2.10;0.77;;;22.50;99.90;;;;;;6246143;23;20630;-77
2021/09/15 14:43:42;;;;;;;0.70;0.45;;;22.50;99.90;;;;;;6246639;23;20215;-78
2021/09/15 14:46:10;;;;;;;2.75;0.90;;;22.40;99.90;;;;;;6246579;23;20483;-77
2021/09/15 14:48:38;;;;;;;0.98;0.63;;;22.30;99.90;;;;;;6246339;23;20640;-76
2021/09/15 14:51:05;;;;;;;1.50;0.85;;;22.20;99.90;;;;;;6246394;23;20506;-77
2021/09/15 14:53:32;;;;;;;2.42;0.70;;;22.30;99.90;;;;;;6246621;23;20206;-78
2021/09/15 14:55:59;;;;;;;0.63;0.40;;;22.20;99.90;;;;;;6246536;23;20180;-77
2021/09/15 14:58:25;;;;;;;1.02;0.60;;;22.00;99.90;;;;;;6246060;23;20693;-78
2021/09/15 15:00:52;;;;;;;1.15;0.60;;;22.10;99.90;;;;;;6246635;23;20262;-78
2021/09/15 15:03:19;;;;;;;1.73;0.70;;;22.10;99.90;;;;;;6246447;23;20207;-77
2021/09/15 15:05:48;;;;;;;2.75;0.73;;;22.20;99.90;;;;;;6246413;23;20182;-78
2021/09/15 15:08:15;;;;;;;0.98;0.52;;;22.10;99.90;;;;;;6246082;23;20176;-78
2021/09/15 15:10:41;;;;;;;2.05;0.63;;;22.10;99.90;;;;;;6245913;23;20638;-78
2021/09/15 15:13:08;;;;;;;1.45;0.55;;;22.00;99.90;;;;;;6246174;23;20266;-77
2021/09/15 15:15:35;;;;;;;1.77;0.50;;;22.00;99.90;;;;;;6246080;23;20182;-78
2021/09/15 15:18:02;;;;;;;0.85;0.40;;;22.00;99.90;;;;;;6245847;23;20189;-78
2021/09/15 15:20:28;;;;;;;1.42;0.50;;;21.90;99.90;;;;;;6246261;23;20186;-78
2021/09/15 15:22:56;;;;;;;1.25;0.60;;;21.90;99.90;;;;;;6246133;23;20199;-78
2021/09/15 15:25:23;;;;;;;2.30;0.70;;;21.90;99.90;;;;;;6245840;23;20202;-79
2021/09/15 15:27:50;;;;;;;2.78;0.80;;;21.90;99.90;;;;;;6245674;23;20258;-78
2021/09/15 15:30:19;;;;;;;3.10;0.80;;;21.80;99.90;;;;;;6246091;23;20182;-77
2021/09/15 15:32:47;;;;;;;1.58;0.93;;;21.70;99.90;;;;;;6245678;23;20456;-78
2021/09/15 15:35:15;;;;;;;2.03;0.70;;;21.80;99.90;;;;;;6245849;23;20202;-78
2021/09/15 15:37:44;;;;;;;1.95;1.00;;;21.80;99.90;;;;;;6246325;23;20176;-78
2021/09/15 15:40:15;;;;;;;1.98;0.82;;;22.00;99.90;;;;;;6245965;23;20214;-77
2021/09/15 15:42:43;;;;;;;1.50;0.70;;;21.80;99.90;;;;;;6245716;23;20203;-78
2021/09/15 15:45:11;;;;;;;1.35;0.70;;;21.80;99.90;;;;;;6245904;23;20196;-77
2021/09/15 15:47:39;;;;;;;2.22;0.50;;;21.60;99.90;;;;;;6245888;23;20179;-78
2021/09/15 15:50:08;;;;;;;0.55;0.40;;;21.60;99.90;;;;;;6245390;23;20184;-78
2021/09/15 15:52:34;;;;;;;0.70;0.40;;;21.50;99.90;;;;;;6246042;23;20179;-77
2021/09/15 15:55:02;;;;;;;0.95;0.30;;;21.50;99.90;;;;;;6246148;23;20223;-77
2021/09/15 15:57:30;;;;;;;1.23;0.40;;;21.50;99.90;;;;;;6246350;23;20179;-78
2021/09/15 15:59:57;;;;;;;1.02;0.50;;;21.50;99.90;;;;;;6245733;23;20629;-77
2021/09/15 16:02:26;;;;;;;1.08;0.50;;;21.40;99.90;;;;;;6245192;23;20266;-78
2021/09/15 16:04:53;;;;;;;1.40;0.60;;;21.30;99.90;;;;;;6245110;23;20584;-78
2021/09/15 16:07:20;;;;;;;2.72;0.40;;;21.30;99.90;;;;;;6245774;23;20258;-78
2021/09/15 16:09:47;;;;;;;0.80;0.40;;;21.30;99.90;;;;;;6245824;23;20198;-78
2021/09/15 16:12:13;;;;;;;0.95;0.30;;;21.30;99.90;;;;;;6245576;23;20266;-79
2021/09/15 16:14:41;;;;;;;0.88;0.38;;;21.30;99.90;;;;;;6245992;23;20199;-79
2021/09/15 16:17:08;;;;;;;0.30;0.13;;;21.00;99.90;;;;;;6245375;23;20184;-78
2021/09/15 16:19:35;;;;;;;0.80;0.30;;;21.00;99.90;;;;;;6245641;23;20180;-79
2021/09/15 16:22:02;;;;;;;2.40;0.40;;;20.90;99.90;;;;;;6245178;23;20626;-79
2021/09/15 16:24:28;;;;;;;1.65;0.30;;;21.00;99.90;;;;;;6245877;23;20212;-77
2021/09/15 16:26:55;;;;;;;2.97;0.50;;;20.80;99.90;;;;;;6245827;23;20186;-77
2021/09/15 16:29:22;;;;;;;1.05;0.43;;;20.70;99.90;;;;;;6245408;23;20176;-78
2021/09/15 16:31:51;;;;;;;1.08;0.32;;;20.80;99.90;;;;;;6246140;23;20176;-78
2021/09/15 16:34:17;;;;;;;2.00;0.60;;;20.70;99.90;;;;;;6245520;23;20278;-78
2021/09/15 16:36:44;;;;;;;0.80;0.40;;;20.70;99.90;;;;;;6246555;23;20186;-77
2021/09/15 16:39:11;;;;;;;2.30;0.70;;;20.70;99.90;;;;;;6246700;23;20186;-77
2021/09/15 16:41:38;;;;;;;2.13;0.40;;;20.70;99.90;;;;;;6245561;23;20233;-78
2021/09/15 16:44:05;;;;;;;0.77;0.38;;;20.90;99.90;;;;;;6245615;23;20219;-78
2021/09/15 16:46:32;;;;;;;2.75;0.30;;;20.80;99.90;;;;;;6245193;23;20180;-78
2021/09/15 16:49:00;;;;;;;4.85;0.40;;;20.80;99.90;;;;;;6245850;23;20652;-78
2021/09/15 16:51:27;;;;;;;1.20;0.40;;;20.70;99.90;;;;;;6246232;23;20176;-78
2021/09/15 16:53:54;;;;;;;1.23;0.43;;;20.70;99.90;;;;;;6245587;23;20195;-78
2021/09/15 16:56:20;;;;;;;2.28;0.40;;;20.50;99.90;;;;;;6245637;23;20496;-78
2021/09/15 16:58:50;;;;;;;1.40;0.40;;;20.50;99.90;;;;;;6245475;23;20176;-77
2021/09/15 17:01:17;;;;;;;2.80;0.50;;;20.50;99.90;;;;;;6246260;23;20631;-77
2021/09/15 17:03:44;;;;;;;1.40;0.40;;;20.40;99.90;;;;;;6247462;23;20215;-77
2021/09/15 17:06:12;;;;;;;2.28;0.57;;;20.30;99.90;;;;;;6247632;23;20180;-77
2021/09/15 17:08:39;;;;;;;1.45;0.50;;;20.40;99.90;;;;;;6247372;23;20180;-77
2021/09/15 17:11:06;;;;;;;2.50;0.50;;;20.30;99.90;;;;;;6247209;23;20564;-78
2021/09/15 17:13:33;;;;;;;0.88;0.40;;;20.40;99.90;;;;;;6247542;23;20195;-77
2021/09/15 17:16:00;;;;;;;1.95;0.40;;;20.30;99.90;;;;;;6247251;23;20258;-77
2021/09/15 17:18:26;;;;;;;3.38;0.60;;;20.10;99.90;;;;;;6247213;23;20182;-77
2021/09/15 17:20:54;;;;;;;2.17;0.60;;;20.00;99.90;;;;;;6246957;23;20179;-78
2021/09/15 17:23:22;;;;;;;0.90;0.40;;;19.90;99.90;;;;;;6246974;23;20204;-78
2021/09/15 17:25:49;;;;;;;2.55;0.55;;;19.90;99.90;;;;;;6247696;23;20176;-78
2021/09/15 17:28:16;;;;;;;2.95;1.33;;;19.70;99.90;;;;;;6247262;23;20176;-78
2021/09/15 17:30:44;;;;;;;1.23;0.65;;;19.70;99.90;;;;;;6247025;23;20713;-78
2021/09/15 17:33:11;;;;;;;1.17;0.55;;;19.70;99.90;;;;;;6246955;23;20547;-77
2021/09/15 17:35:38;;;;;;;2.90;0.60;;;19.50;99.90;;;;;;6247690;23;20182;-78
2021/09/15 17:38:04;;;;;;;1.85;0.60;;;19.60;99.90;;;;;;6247075;23;20176;-77
2021/09/15 17:40:33;;;;;;;1.63;0.47;;;19.60;99.90;;;;;;6246867;23;20502;-79
2021/09/15 17:42:59;;;;;;;2.33;0.50;;;19.50;99.90;;;;;;6246801;23;20182;-78
2021/09/15 17:45:26;;;;;;;1.52;0.50;;;19.50;99.90;;;;;;6246573;23;20202;-78
2021/09/15 17:47:53;;;;;;;1.83;0.77;;;19.50;99.90;;;;;;6246962;23;20498;-78
2021/09/15 17:50:20;;;;;;;2.33;0.50;;;19.60;99.90;;;;;;6247093;23;20176;-79
2021/09/15 17:52:46;;;;;;;1.43;0.50;;;19.50;99.90;;;;;;6246751;23;20179;-78
2021/09/15 17:55:13;;;;;;;0.40;0.40;;;19.40;99.90;;;;;;6246557;23;20662;-78
2021/09/15 17:57:42;;;;;;;2.30;0.60;;;19.30;99.90;;;;;;6247228;23;20254;-78
2021/09/15 18:00:10;;;;;;;4.17;0.50;;;19.30;99.90;;;;;;6247049;23;20178;-80
2021/09/15 18:02:36;;;;;;;2.30;0.80;;;19.20;99.90;;;;;;6246923;23;20182;-78
2021/09/15 18:05:04;;;;;;;1.73;0.80;;;19.20;99.90;;;;;;6246579;23;20211;-79
2021/09/15 18:07:30;;;;;;;0.90;0.60;;;19.30;99.90;;;;;;6246869;23;20176;-77
2021/09/15 18:09:57;;;;;;;6.63;1.20;;;19.10;99.90;;;;;;6246593;23;20175;-78
2021/09/15 18:12:24;;;;;;;1.47;0.60;;;19.20;99.90;;;;;;6246612;23;20175;-78
2021/09/15 18:14:52;;;;;;;1.67;0.57;;;19.20;99.90;;;;;;6246917;23;20199;-78
2021/09/15 18:17:19;;;;;;;1.70;0.57;;;19.10;99.90;;;;;;6246386;23;20510;-78
2021/09/15 18:19:46;;;;;;;1.83;0.80;;;19.00;99.90;;;;;;6246155;23;20176;-78
2021/09/15 18:22:12;;;;;;;5.70;1.00;;;19.00;99.90;;;;;;6245331;23;20180;-78
2021/09/15 18:24:39;;;;;;;1.60;0.80;;;19.00;99.90;;;;;;6245509;23;20222;-77
2021/09/15 18:27:09;;;;;;;1.30;0.60;;;19.00;99.90;;;;;;6246498;23;20176;-77
2021/09/15 18:29:36;;;;;;;1.37;0.60;;;19.00;99.90;;;;;;6246657;23;20182;-77
2021/09/15 18:32:05;;;;;;;4.77;0.67;;;18.90;99.90;;;;;;6245931;23;20180;-78
2021/09/15 18:34:32;;;;;;;3.23;1.00;;;18.90;99.90;;;;;;6246853;23;20196;-77
2021/09/15 18:36:59;;;;;;;3.67;0.77;;;19.00;99.90;;;;;;6246299;23;20175;-77
2021/09/15 18:39:26;;;;;;;6.27;1.10;;;18.90;99.90;;;;;;6243089;23;20294;-78
2021/09/15 18:41:53;;;;;;;1.57;0.70;;;18.90;99.90;;;;;;6244570;23;20632;-78
2021/09/15 18:44:20;;;;;;;1.13;0.40;;;18.90;99.90;;;;;;6244814;23;20208;-79
2021/09/15 18:46:47;;;;;;;1.13;0.60;;;18.90;99.90;;;;;;6244852;23;20639;-78
2021/09/15 18:49:15;;;;;;;4.93;0.57;;;18.80;99.90;;;;;;6244349;23;20266;-78
2021/09/15 18:51:43;;;;;;;1.77;0.57;;;18.80;99.90;;;;;;6245277;23;20175;-79
2021/09/15 18:54:10;;;;;;;2.00;0.70;;;18.80;99.90;;;;;;6245080;23;20199;-78
2021/09/15 18:56:37;;;;;;;1.33;0.60;;;18.80;99.90;;;;;;6245050;23;20180;-78
2021/09/15 18:59:05;;;;;;;1.70;0.73;;;18.80;99.90;;;;;;6244488;23;20495;-78
2021/09/15 19:01:31;;;;;;;3.77;0.60;;;18.80;99.90;;;;;;6244969;23;20183;-79
2021/09/15 19:03:58;;;;;;;2.80;0.70;;;18.70;99.90;;;;;;6244763;23;20500;-79
2021/09/15 19:06:27;;;;;;;2.17;0.70;;;18.70;99.90;;;;;;6245119;23;20182;-78
2021/09/15 19:08:53;;;;;;;2.10;0.50;;;18.70;99.90;;;;;;6245259;23;20179;-78
2021/09/15 19:11:20;;;;;;;1.80;0.50;;;18.80;99.90;;;;;;6245045;23;20183;-79
2021/09/15 19:13:48;;;;;;;2.80;0.40;;;18.80;99.90;;;;;;6245884;23;20278;-79
2021/09/15 19:16:15;;;;;;;0.50;0.40;;;18.70;99.90;;;;;;6244452;23;20283;-79
2021/09/15 19:18:42;;;;;;;2.90;0.80;;;18.70;99.90;;;;;;6244581;23;20180;-78
2021/09/15 19:21:09;;;;;;;1.90;0.33;;;18.70;99.90;;;;;;6245021;23;20175;-79
2021/09/15 19:23:38;;;;;;;1.17;0.53;;;18.70;99.90;;;;;;6244978;23;20202;-79
2021/09/15 19:26:05;;;;;;;1.10;0.40;;;18.70;99.90;;;;;;6244665;23;20710;-78
2021/09/15 19:28:32;;;;;;;2.47;0.50;;;18.70;99.90;;;;;;6245078;23;20175;-79
2021/09/15 19:31:00;;;;;;;1.53;0.50;;;18.60;99.90;;;;;;6244718;23;20218;-78
2021/09/15 19:33:27;;;;;;;2.20;0.50;;;18.70;99.90;;;;;;6244818;23;20199;-79
2021/09/15 19:35:53;;;;;;;1.70;0.40;;;18.60;99.90;;;;;;6244791;23;20176;-79
2021/09/15 19:38:20;;;;;;;2.63;0.40;;;18.60;99.90;;;;;;6244823;23;20638;-79
2021/09/15 19:40:48;;;;;;;1.30;0.50;;;18.50;99.90;;;;;;6244637;23;20502;-78
2021/09/15 19:43:15;;;;;;;1.33;0.60;;;18.40;99.90;;;;;;6244395;23;20175;-78
2021/09/15 19:45:42;;;;;;;5.73;0.63;;;18.50;99.90;;;;;;6244095;23;20217;-79
2021/09/15 19:48:09;;;;;;;1.17;0.63;;;18.50;99.90;;;;;;6244685;23;20177;-79
2021/09/15 19:50:36;;;;;;;1.07;0.60;;;18.50;99.90;;;;;;6243677;23;20179;-79
2021/09/15 19:53:03;;;;;;;1.13;0.43;;;18.50;99.90;;;;;;6244794;23;20182;-78
2021/09/15 19:55:30;;;;;;;2.17;0.70;;;18.50;99.90;;;;;;6243981;23;20498;-78
2021/09/15 19:57:59;;;;;;;0.53;0.30;;;18.50;99.90;;;;;;6245292;23;20199;-78
2021/09/15 20:00:26;;;;;;;2.80;0.40;;;18.50;99.90;;;;;;6245113;23;20175;-78
2021/09/15 20:02:53;;;;;;;1.37;0.50;;;18.50;99.90;;;;;;6244806;23;20185;-78
2021/09/15 20:05:21;;;;;;;2.10;0.63;;;18.50;99.90;;;;;;6244776;23;20294;-78